sensor_id;sensor_type;location;lat;lon;timestamp;temperature;humidity
48206;DHT22;33995;48.202;16.260;2022-08-25T00:01:53;20.50;99.90
48206;DHT22;33995;48.202;16.260;2022-08-25T00:04:23;20.50;99.90
48206;DHT22;33995;48.202;16.260;2022-08-25T00:07:02;20.50;99.90
48206;DHT22;33995;48.202;16.260;2022-08-25T00:09:32;20.50;99.90
48206;DHT22;33995;48.202;16.260;2022-08-25T00:12:00;20.50;99.90
48206;DHT22;33995;48.202;16.260;2022-08-25T00:14:36;20.50;99.90
48206;DHT22;33995;48.202;16.260;2022-08-25T00:17:06;20.50;99.90
48206;DHT22;33995;48.202;16.260;2022-08-25T00:19:43;20.50;99.90
48206;DHT22;33995;48.202;16.260;2022-08-25T00:22:14;20.50;99.90
48206;DHT22;33995;48.202;16.260;2022-08-25T00:24:42;20.50;99.90
48206;DHT22;33995;48.202;16.260;2022-08-25T00:27:11;20.50;99.90
48206;DHT22;33995;48.202;16.260;2022-08-25T00:29:41;20.50;99.90
48206;DHT22;33995;48.202;16.260;2022-08-25T00:32:10;20.50;99.90
48206;DHT22;33995;48.202;16.260;2022-08-25T00:34:38;20.40;99.90
48206;DHT22;33995;48.202;16.260;2022-08-25T00:37:09;20.40;99.90
48206;DHT22;33995;48.202;16.260;2022-08-25T00:39:38;20.40;99.90
48206;DHT22;33995;48.202;16.260;2022-08-25T00:42:08;20.40;99.90
48206;DHT22;33995;48.202;16.260;2022-08-25T00:44:43;20.40;99.90
48206;DHT22;33995;48.202;16.260;2022-08-25T00:47:14;20.40;99.90
48206;DHT22;33995;48.202;16.260;2022-08-25T00:49:55;20.40;99.90
48206;DHT22;33995;48.202;16.260;2022-08-25T00:52:42;20.40;99.90
48206;DHT22;33995;48.202;16.260;2022-08-25T00:55:27;20.30;99.90
48206;DHT22;33995;48.202;16.260;2022-08-25T00:58:28;20.30;99.90
48206;DHT22;33995;48.202;16.260;2022-08-25T01:01:00;20.30;99.90
48206;DHT22;33995;48.202;16.260;2022-08-25T01:03:29;20.30;99.90
48206;DHT22;33995;48.202;16.260;2022-08-25T01:06:04;20.30;99.90
48206;DHT22;33995;48.202;16.260;2022-08-25T01:08:34;20.30;99.90
48206;DHT22;33995;48.202;16.260;2022-08-25T01:11:06;20.30;99.90
48206;DHT22;33995;48.202;16.260;2022-08-25T01:13:43;20.30;99.90
48206;DHT22;33995;48.202;16.260;2022-08-25T01:16:15;20.30;99.90
48206;DHT22;33995;48.202;16.260;2022-08-25T01:18:54;20.30;99.90
48206;DHT22;33995;48.202;16.260;2022-08-25T01:21:48;20.20;99.90
48206;DHT22;33995;48.202;16.260;2022-08-25T01:27:24;20.20;99.90
48206;DHT22;33995;48.202;16.260;2022-08-25T01:29:53;20.20;99.90
48206;DHT22;33995;48.202;16.260;2022-08-25T01:32:22;20.20;99.90
48206;DHT22;33995;48.202;16.260;2022-08-25T01:34:54;20.20;99.90
48206;DHT22;33995;48.202;16.260;2022-08-25T01:37:22;20.20;99.90
48206;DHT22;33995;48.202;16.260;2022-08-25T01:39:51;20.20;99.90
48206;DHT22;33995;48.202;16.260;2022-08-25T01:43:06;20.20;99.90
48206;DHT22;33995;48.202;16.260;2022-08-25T01:45:36;20.20;99.90
48206;DHT22;33995;48.202;16.260;2022-08-25T01:48:06;20.20;99.90
48206;DHT22;33995;48.202;16.260;2022-08-25T01:50:36;20.20;99.90
48206;DHT22;33995;48.202;16.260;2022-08-25T01:53:27;20.20;99.90
48206;DHT22;33995;48.202;16.260;2022-08-25T01:56:08;20.20;99.90
48206;DHT22;33995;48.202;16.260;2022-08-25T01:58:44;20.20;99.90
48206;DHT22;33995;48.202;16.260;2022-08-25T02:01:16;20.20;99.90
48206;DHT22;33995;48.202;16.260;2022-08-25T02:03:47;20.20;99.90
48206;DHT22;33995;48.202;16.260;2022-08-25T02:06:37;20.20;99.90
48206;DHT22;33995;48.202;16.260;2022-08-25T02:09:11;20.20;99.90
48206;DHT22;33995;48.202;16.260;2022-08-25T02:11:43;20.20;99.90
48206;DHT22;33995;48.202;16.260;2022-08-25T02:14:15;20.20;99.90
48206;DHT22;33995;48.202;16.260;2022-08-25T02:16:50;20.20;99.90
48206;DHT22;33995;48.202;16.260;2022-08-25T02:19:23;20.20;99.90
48206;DHT22;33995;48.202;16.260;2022-08-25T02:21:53;20.20;99.90
48206;DHT22;33995;48.202;16.260;2022-08-25T02:24:21;20.20;99.90
48206;DHT22;33995;48.202;16.260;2022-08-25T02:26:50;20.10;99.90
48206;DHT22;33995;48.202;16.260;2022-08-25T02:29:21;20.20;99.90
48206;DHT22;33995;48.202;16.260;2022-08-25T02:31:52;20.20;99.90
48206;DHT22;33995;48.202;16.260;2022-08-25T02:34:30;20.20;99.90
48206;DHT22;33995;48.202;16.260;2022-08-25T02:37:12;20.20;99.90
48206;DHT22;33995;48.202;16.260;2022-08-25T02:39:41;20.20;99.90
48206;DHT22;33995;48.202;16.260;2022-08-25T02:42:09;20.20;99.90
48206;DHT22;33995;48.202;16.260;2022-08-25T02:44:39;20.20;99.90
48206;DHT22;33995;48.202;16.260;2022-08-25T02:47:10;20.20;99.90
48206;DHT22;33995;48.202;16.260;2022-08-25T02:49:39;20.20;99.90
48206;DHT22;33995;48.202;16.260;2022-08-25T02:52:09;20.20;99.90
48206;DHT22;33995;48.202;16.260;2022-08-25T02:54:40;20.20;99.90
48206;DHT22;33995;48.202;16.260;2022-08-25T02:57:24;20.20;99.90
48206;DHT22;33995;48.202;16.260;2022-08-25T02:59:52;20.20;99.90
48206;DHT22;33995;48.202;16.260;2022-08-25T03:02:21;20.20;99.90
48206;DHT22;33995;48.202;16.260;2022-08-25T03:04:52;20.20;99.90
48206;DHT22;33995;48.202;16.260;2022-08-25T03:07:22;20.20;99.90
48206;DHT22;33995;48.202;16.260;2022-08-25T03:09:51;20.20;99.90
48206;DHT22;33995;48.202;16.260;2022-08-25T03:12:21;20.20;99.90
48206;DHT22;33995;48.202;16.260;2022-08-25T03:14:54;20.20;99.90
48206;DHT22;33995;48.202;16.260;2022-08-25T03:17:25;20.20;99.90
48206;DHT22;33995;48.202;16.260;2022-08-25T03:19:53;20.20;99.90
48206;DHT22;33995;48.202;16.260;2022-08-25T03:22:23;20.20;99.90
48206;DHT22;33995;48.202;16.260;2022-08-25T03:24:54;20.20;99.90
48206;DHT22;33995;48.202;16.260;2022-08-25T03:27:42;20.20;99.90
48206;DHT22;33995;48.202;16.260;2022-08-25T03:30:11;20.10;99.90
48206;DHT22;33995;48.202;16.260;2022-08-25T03:32:40;20.10;99.90
48206;DHT22;33995;48.202;16.260;2022-08-25T03:35:10;20.10;99.90
48206;DHT22;33995;48.202;16.260;2022-08-25T03:37:40;20.10;99.90
48206;DHT22;33995;48.202;16.260;2022-08-25T03:40:17;20.10;99.90
48206;DHT22;33995;48.202;16.260;2022-08-25T03:42:45;20.10;99.90
48206;DHT22;33995;48.202;16.260;2022-08-25T03:45:19;20.00;99.90
48206;DHT22;33995;48.202;16.260;2022-08-25T03:47:50;20.10;99.90
48206;DHT22;33995;48.202;16.260;2022-08-25T03:50:22;20.00;99.90
48206;DHT22;33995;48.202;16.260;2022-08-25T03:52:55;20.00;99.90
48206;DHT22;33995;48.202;16.260;2022-08-25T03:55:28;20.00;99.90
48206;DHT22;33995;48.202;16.260;2022-08-25T03:57:59;20.00;99.90
48206;DHT22;33995;48.202;16.260;2022-08-25T04:00:30;20.00;99.90
48206;DHT22;33995;48.202;16.260;2022-08-25T04:03:00;20.10;99.90
48206;DHT22;33995;48.202;16.260;2022-08-25T04:05:28;20.10;99.90
48206;DHT22;33995;48.202;16.260;2022-08-25T04:08:00;20.10;99.90
48206;DHT22;33995;48.202;16.260;2022-08-25T04:10:30;20.10;99.90
48206;DHT22;33995;48.202;16.260;2022-08-25T04:13:01;20.10;99.90
48206;DHT22;33995;48.202;16.260;2022-08-25T04:15:35;20.00;99.90
48206;DHT22;33995;48.202;16.260;2022-08-25T04:18:03;20.10;99.90
48206;DHT22;33995;48.202;16.260;2022-08-25T04:20:32;20.10;99.90
48206;DHT22;33995;48.202;16.260;2022-08-25T04:23:03;20.10;99.90
48206;DHT22;33995;48.202;16.260;2022-08-25T04:25:45;20.10;99.90
48206;DHT22;33995;48.202;16.260;2022-08-25T04:28:13;20.10;99.90
48206;DHT22;33995;48.202;16.260;2022-08-25T04:30:42;20.10;99.90
48206;DHT22;33995;48.202;16.260;2022-08-25T04:33:19;20.00;99.90
48206;DHT22;33995;48.202;16.260;2022-08-25T04:35:48;20.10;99.90
48206;DHT22;33995;48.202;16.260;2022-08-25T04:38:17;20.10;99.90
48206;DHT22;33995;48.202;16.260;2022-08-25T04:40:55;20.00;99.90
48206;DHT22;33995;48.202;16.260;2022-08-25T04:43:24;20.00;99.90
48206;DHT22;33995;48.202;16.260;2022-08-25T04:45:52;20.00;99.90
48206;DHT22;33995;48.202;16.260;2022-08-25T04:48:21;20.10;99.90
48206;DHT22;33995;48.202;16.260;2022-08-25T04:50:50;20.10;99.90
48206;DHT22;33995;48.202;16.260;2022-08-25T04:53:21;20.00;99.90
48206;DHT22;33995;48.202;16.260;2022-08-25T04:55:49;20.10;99.90
48206;DHT22;33995;48.202;16.260;2022-08-25T04:58:19;20.00;99.90
48206;DHT22;33995;48.202;16.260;2022-08-25T05:00:50;20.00;99.90
48206;DHT22;33995;48.202;16.260;2022-08-25T05:03:19;20.10;99.90
48206;DHT22;33995;48.202;16.260;2022-08-25T05:05:51;20.10;99.90
48206;DHT22;33995;48.202;16.260;2022-08-25T05:08:21;20.10;99.90
48206;DHT22;33995;48.202;16.260;2022-08-25T05:10:52;20.20;99.90
48206;DHT22;33995;48.202;16.260;2022-08-25T05:13:25;20.20;99.90
48206;DHT22;33995;48.202;16.260;2022-08-25T05:15:58;20.20;99.90
48206;DHT22;33995;48.202;16.260;2022-08-25T05:18:33;20.20;99.90
48206;DHT22;33995;48.202;16.260;2022-08-25T05:21:10;20.30;99.90
48206;DHT22;33995;48.202;16.260;2022-08-25T05:23:40;20.30;99.90
48206;DHT22;33995;48.202;16.260;2022-08-25T05:26:13;20.30;99.90
48206;DHT22;33995;48.202;16.260;2022-08-25T05:28:51;20.30;99.90
48206;DHT22;33995;48.202;16.260;2022-08-25T05:31:24;20.30;99.90
48206;DHT22;33995;48.202;16.260;2022-08-25T05:33:54;20.30;99.90
48206;DHT22;33995;48.202;16.260;2022-08-25T05:36:23;20.30;99.90
48206;DHT22;33995;48.202;16.260;2022-08-25T05:38:52;20.40;99.90
48206;DHT22;33995;48.202;16.260;2022-08-25T05:41:26;20.30;99.90
48206;DHT22;33995;48.202;16.260;2022-08-25T05:43:56;20.30;99.90
48206;DHT22;33995;48.202;16.260;2022-08-25T05:46:38;20.30;99.90
48206;DHT22;33995;48.202;16.260;2022-08-25T05:49:07;20.40;99.90
48206;DHT22;33995;48.202;16.260;2022-08-25T05:51:36;20.40;99.90
48206;DHT22;33995;48.202;16.260;2022-08-25T05:54:11;20.40;99.90
48206;DHT22;33995;48.202;16.260;2022-08-25T05:56:39;20.40;99.90
48206;DHT22;33995;48.202;16.260;2022-08-25T05:59:12;20.40;99.90
48206;DHT22;33995;48.202;16.260;2022-08-25T06:01:42;20.40;99.90
48206;DHT22;33995;48.202;16.260;2022-08-25T06:04:31;20.40;99.90
48206;DHT22;33995;48.202;16.260;2022-08-25T06:07:13;20.40;99.90
48206;DHT22;33995;48.202;16.260;2022-08-25T06:09:44;20.40;99.90
48206;DHT22;33995;48.202;16.260;2022-08-25T06:12:16;20.40;99.90
48206;DHT22;33995;48.202;16.260;2022-08-25T06:14:44;20.40;99.90
48206;DHT22;33995;48.202;16.260;2022-08-25T06:17:20;20.40;99.90
48206;DHT22;33995;48.202;16.260;2022-08-25T06:19:52;20.40;99.90
48206;DHT22;33995;48.202;16.260;2022-08-25T06:22:20;20.40;99.90
48206;DHT22;33995;48.202;16.260;2022-08-25T06:24:49;20.40;99.90
48206;DHT22;33995;48.202;16.260;2022-08-25T06:27:18;20.40;99.90
48206;DHT22;33995;48.202;16.260;2022-08-25T06:29:49;20.40;99.90
48206;DHT22;33995;48.202;16.260;2022-08-25T06:32:23;20.50;99.90
48206;DHT22;33995;48.202;16.260;2022-08-25T06:34:52;20.50;99.90
48206;DHT22;33995;48.202;16.260;2022-08-25T06:37:23;20.50;99.90
48206;DHT22;33995;48.202;16.260;2022-08-25T06:39:54;20.50;99.90
48206;DHT22;33995;48.202;16.260;2022-08-25T06:42:29;20.60;99.90
48206;DHT22;33995;48.202;16.260;2022-08-25T06:45:01;20.60;99.90
48206;DHT22;33995;48.202;16.260;2022-08-25T06:47:44;20.60;99.90
48206;DHT22;33995;48.202;16.260;2022-08-25T06:50:15;20.60;99.90
48206;DHT22;33995;48.202;16.260;2022-08-25T06:52:46;20.60;99.90
48206;DHT22;33995;48.202;16.260;2022-08-25T06:55:18;20.70;99.90
48206;DHT22;33995;48.202;16.260;2022-08-25T06:57:54;20.70;99.90
48206;DHT22;33995;48.202;16.260;2022-08-25T07:00:25;20.70;99.90
48206;DHT22;33995;48.202;16.260;2022-08-25T07:03:04;20.70;99.90
48206;DHT22;33995;48.202;16.260;2022-08-25T07:05:38;20.70;99.90
48206;DHT22;33995;48.202;16.260;2022-08-25T07:08:11;20.80;99.90
48206;DHT22;33995;48.202;16.260;2022-08-25T07:10:42;20.80;99.90
48206;DHT22;33995;48.202;16.260;2022-08-25T07:13:17;20.80;99.90
48206;DHT22;33995;48.202;16.260;2022-08-25T07:15:51;20.80;99.90
48206;DHT22;33995;48.202;16.260;2022-08-25T07:18:23;20.90;99.90
48206;DHT22;33995;48.202;16.260;2022-08-25T07:20:58;20.90;99.90
48206;DHT22;33995;48.202;16.260;2022-08-25T07:23:26;21.00;99.90
48206;DHT22;33995;48.202;16.260;2022-08-25T07:26:14;20.90;99.90
48206;DHT22;33995;48.202;16.260;2022-08-25T07:29:13;21.00;99.90
48206;DHT22;33995;48.202;16.260;2022-08-25T07:31:50;21.00;99.90
48206;DHT22;33995;48.202;16.260;2022-08-25T07:34:20;21.00;99.90
48206;DHT22;33995;48.202;16.260;2022-08-25T07:37:13;21.00;99.90
48206;DHT22;33995;48.202;16.260;2022-08-25T07:40:01;21.00;99.90
48206;DHT22;33995;48.202;16.260;2022-08-25T07:42:31;21.00;99.90
48206;DHT22;33995;48.202;16.260;2022-08-25T07:45:01;21.00;99.90
48206;DHT22;33995;48.202;16.260;2022-08-25T07:47:36;20.90;99.90
48206;DHT22;33995;48.202;16.260;2022-08-25T07:50:08;21.00;99.90
48206;DHT22;33995;48.202;16.260;2022-08-25T07:52:41;21.10;99.90
48206;DHT22;33995;48.202;16.260;2022-08-25T07:55:25;21.20;99.90
48206;DHT22;33995;48.202;16.260;2022-08-25T07:57:56;21.30;99.90
48206;DHT22;33995;48.202;16.260;2022-08-25T08:00:31;21.40;99.90
48206;DHT22;33995;48.202;16.260;2022-08-25T08:03:04;21.40;99.90
48206;DHT22;33995;48.202;16.260;2022-08-25T08:05:41;21.30;99.90
48206;DHT22;33995;48.202;16.260;2022-08-25T08:08:13;21.30;99.90
48206;DHT22;33995;48.202;16.260;2022-08-25T08:10:47;21.30;99.90
48206;DHT22;33995;48.202;16.260;2022-08-25T08:13:34;21.20;99.90
48206;DHT22;33995;48.202;16.260;2022-08-25T08:16:12;21.20;99.90
48206;DHT22;33995;48.202;16.260;2022-08-25T08:18:57;21.20;99.90
48206;DHT22;33995;48.202;16.260;2022-08-25T08:21:41;21.20;99.90
48206;DHT22;33995;48.202;16.260;2022-08-25T08:24:23;21.30;99.90
48206;DHT22;33995;48.202;16.260;2022-08-25T08:27:13;21.30;99.90
48206;DHT22;33995;48.202;16.260;2022-08-25T08:29:47;21.50;99.90
48206;DHT22;33995;48.202;16.260;2022-08-25T08:32:14;21.60;99.90
48206;DHT22;33995;48.202;16.260;2022-08-25T08:34:45;21.70;99.90
48206;DHT22;33995;48.202;16.260;2022-08-25T08:37:20;21.90;99.90
48206;DHT22;33995;48.202;16.260;2022-08-25T08:39:51;22.30;99.90
48206;DHT22;33995;48.202;16.260;2022-08-25T08:45:45;23.00;99.90
48206;DHT22;33995;48.202;16.260;2022-08-25T08:48:39;23.20;99.90
48206;DHT22;33995;48.202;16.260;2022-08-25T08:51:30;23.40;99.90
48206;DHT22;33995;48.202;16.260;2022-08-25T08:54:22;23.60;99.90
48206;DHT22;33995;48.202;16.260;2022-08-25T08:57:17;23.70;99.90
48206;DHT22;33995;48.202;16.260;2022-08-25T08:59:55;23.50;99.90
48206;DHT22;33995;48.202;16.260;2022-08-25T09:02:30;23.50;99.90
48206;DHT22;33995;48.202;16.260;2022-08-25T09:05:20;23.60;99.90
48206;DHT22;33995;48.202;16.260;2022-08-25T09:08:01;23.20;99.90
48206;DHT22;33995;48.202;16.260;2022-08-25T09:10:51;23.20;99.90
48206;DHT22;33995;48.202;16.260;2022-08-25T09:19:48;23.20;99.90
48206;DHT22;33995;48.202;16.260;2022-08-25T09:22:48;23.20;99.90
48206;DHT22;33995;48.202;16.260;2022-08-25T09:26:12;23.20;99.90
48206;DHT22;33995;48.202;16.260;2022-08-25T09:29:08;23.40;99.90
48206;DHT22;33995;48.202;16.260;2022-08-25T09:31:46;23.50;99.90
48206;DHT22;33995;48.202;16.260;2022-08-25T09:34:24;23.70;99.90
48206;DHT22;33995;48.202;16.260;2022-08-25T09:36:58;23.90;99.90
48206;DHT22;33995;48.202;16.260;2022-08-25T09:39:29;24.10;99.90
48206;DHT22;33995;48.202;16.260;2022-08-25T09:41:58;24.20;99.90
48206;DHT22;33995;48.202;16.260;2022-08-25T09:44:44;24.40;99.90
48206;DHT22;33995;48.202;16.260;2022-08-25T09:47:25;24.40;99.90
48206;DHT22;33995;48.202;16.260;2022-08-25T09:49:59;24.60;99.90
48206;DHT22;33995;48.202;16.260;2022-08-25T09:52:48;24.60;99.90
48206;DHT22;33995;48.202;16.260;2022-08-25T09:55:30;24.70;99.90
48206;DHT22;33995;48.202;16.260;2022-08-25T09:58:15;24.70;99.90
48206;DHT22;33995;48.202;16.260;2022-08-25T10:01:11;24.80;99.90
48206;DHT22;33995;48.202;16.260;2022-08-25T10:06:28;25.00;99.90
48206;DHT22;33995;48.202;16.260;2022-08-25T10:09:06;24.80;99.90
48206;DHT22;33995;48.202;16.260;2022-08-25T10:11:46;25.00;99.90
48206;DHT22;33995;48.202;16.260;2022-08-25T10:14:35;25.10;99.90
48206;DHT22;33995;48.202;16.260;2022-08-25T10:17:31;25.20;99.90
48206;DHT22;33995;48.202;16.260;2022-08-25T10:20:20;25.50;99.90
48206;DHT22;33995;48.202;16.260;2022-08-25T10:22:50;25.20;99.90
48206;DHT22;33995;48.202;16.260;2022-08-25T10:25:27;25.50;99.90
48206;DHT22;33995;48.202;16.260;2022-08-25T10:28:25;25.80;99.90
48206;DHT22;33995;48.202;16.260;2022-08-25T10:37:05;25.90;99.90
48206;DHT22;33995;48.202;16.260;2022-08-25T10:45:28;26.60;99.90
48206;DHT22;33995;48.202;16.260;2022-08-25T10:54:36;26.70;99.90
48206;DHT22;33995;48.202;16.260;2022-08-25T10:57:45;26.90;99.90
48206;DHT22;33995;48.202;16.260;2022-08-25T11:00:37;26.90;99.90
48206;DHT22;33995;48.202;16.260;2022-08-25T11:03:33;27.10;99.90
48206;DHT22;33995;48.202;16.260;2022-08-25T11:06:16;27.10;99.90
48206;DHT22;33995;48.202;16.260;2022-08-25T11:09:02;27.10;99.90
48206;DHT22;33995;48.202;16.260;2022-08-25T11:11:41;27.30;99.90
48206;DHT22;33995;48.202;16.260;2022-08-25T11:18:14;27.40;99.90
48206;DHT22;33995;48.202;16.260;2022-08-25T11:21:15;27.70;99.90
48206;DHT22;33995;48.202;16.260;2022-08-25T11:27:10;27.60;99.90
48206;DHT22;33995;48.202;16.260;2022-08-25T11:29:58;27.50;99.90
48206;DHT22;33995;48.202;16.260;2022-08-25T11:32:34;27.60;99.90
48206;DHT22;33995;48.202;16.260;2022-08-25T11:39:12;27.90;99.90
48206;DHT22;33995;48.202;16.260;2022-08-25T11:51:39;27.90;99.90
48206;DHT22;33995;48.202;16.260;2022-08-25T11:54:41;28.20;99.90
48206;DHT22;33995;48.202;16.260;2022-08-25T11:57:24;28.40;99.90
48206;DHT22;33995;48.202;16.260;2022-08-25T12:02:44;28.60;99.90
48206;DHT22;33995;48.202;16.260;2022-08-25T12:11:03;28.30;99.90
48206;DHT22;33995;48.202;16.260;2022-08-25T12:13:45;28.20;99.90
48206;DHT22;33995;48.202;16.260;2022-08-25T12:25:34;27.30;99.90
48206;DHT22;33995;48.202;16.260;2022-08-25T12:28:50;27.20;99.90
48206;DHT22;33995;48.202;16.260;2022-08-25T12:32:05;27.00;99.90
48206;DHT22;33995;48.202;16.260;2022-08-25T12:37:26;26.60;99.90
48206;DHT22;33995;48.202;16.260;2022-08-25T12:40:06;26.60;99.90
48206;DHT22;33995;48.202;16.260;2022-08-25T12:43:12;26.60;99.90
48206;DHT22;33995;48.202;16.260;2022-08-25T12:46:31;26.60;99.90
48206;DHT22;33995;48.202;16.260;2022-08-25T12:49:33;26.60;99.90
48206;DHT22;33995;48.202;16.260;2022-08-25T12:52:23;26.70;99.90
48206;DHT22;33995;48.202;16.260;2022-08-25T12:55:03;26.60;99.90
48206;DHT22;33995;48.202;16.260;2022-08-25T12:57:56;26.60;99.90
48206;DHT22;33995;48.202;16.260;2022-08-25T13:01:08;26.60;99.90
48206;DHT22;33995;48.202;16.260;2022-08-25T13:16:23;26.70;99.90
48206;DHT22;33995;48.202;16.260;2022-08-25T13:19:21;27.00;99.90
48206;DHT22;33995;48.202;16.260;2022-08-25T13:21:49;27.30;99.90
48206;DHT22;33995;48.202;16.260;2022-08-25T13:24:33;27.40;99.90
48206;DHT22;33995;48.202;16.260;2022-08-25T13:27:09;27.50;99.90
48206;DHT22;33995;48.202;16.260;2022-08-25T13:29:53;27.50;99.90
48206;DHT22;33995;48.202;16.260;2022-08-25T13:32:32;27.50;99.90
48206;DHT22;33995;48.202;16.260;2022-08-25T13:35:15;27.30;99.90
48206;DHT22;33995;48.202;16.260;2022-08-25T13:38:12;27.40;99.90
48206;DHT22;33995;48.202;16.260;2022-08-25T13:40:41;27.60;99.90
48206;DHT22;33995;48.202;16.260;2022-08-25T13:43:13;27.70;99.90
48206;DHT22;33995;48.202;16.260;2022-08-25T13:45:46;27.70;99.90
48206;DHT22;33995;48.202;16.260;2022-08-25T13:48:37;27.70;99.90
48206;DHT22;33995;48.202;16.260;2022-08-25T13:51:29;27.70;99.90
48206;DHT22;33995;48.202;16.260;2022-08-25T13:54:05;27.70;99.90
48206;DHT22;33995;48.202;16.260;2022-08-25T13:56:41;27.80;99.90
48206;DHT22;33995;48.202;16.260;2022-08-25T13:59:25;27.70;99.90
48206;DHT22;33995;48.202;16.260;2022-08-25T14:01:54;27.60;99.90
48206;DHT22;33995;48.202;16.260;2022-08-25T14:04:52;27.40;99.90
48206;DHT22;33995;48.202;16.260;2022-08-25T14:07:26;27.30;99.90
48206;DHT22;33995;48.202;16.260;2022-08-25T14:10:39;27.20;99.90
48206;DHT22;33995;48.202;16.260;2022-08-25T14:13:33;27.20;99.90
48206;DHT22;33995;48.202;16.260;2022-08-25T14:16:21;27.10;99.90
48206;DHT22;33995;48.202;16.260;2022-08-25T14:18:56;27.00;99.90
48206;DHT22;33995;48.202;16.260;2022-08-25T14:21:32;26.90;99.90
48206;DHT22;33995;48.202;16.260;2022-08-25T14:24:05;26.90;99.90
48206;DHT22;33995;48.202;16.260;2022-08-25T14:26:39;26.80;99.90
48206;DHT22;33995;48.202;16.260;2022-08-25T14:29:22;26.80;99.90
48206;DHT22;33995;48.202;16.260;2022-08-25T14:31:51;26.90;99.90
48206;DHT22;33995;48.202;16.260;2022-08-25T14:34:32;27.10;99.90
48206;DHT22;33995;48.202;16.260;2022-08-25T14:37:13;27.20;99.90
48206;DHT22;33995;48.202;16.260;2022-08-25T14:39:43;27.20;99.90
48206;DHT22;33995;48.202;16.260;2022-08-25T14:42:14;27.10;99.90
48206;DHT22;33995;48.202;16.260;2022-08-25T14:44:47;27.20;99.90
48206;DHT22;33995;48.202;16.260;2022-08-25T14:47:18;27.10;99.90
48206;DHT22;33995;48.202;16.260;2022-08-25T14:49:51;26.90;99.90
48206;DHT22;33995;48.202;16.260;2022-08-25T14:52:28;26.80;99.90
48206;DHT22;33995;48.202;16.260;2022-08-25T14:55:09;26.70;99.90
48206;DHT22;33995;48.202;16.260;2022-08-25T14:57:40;26.80;99.90
48206;DHT22;33995;48.202;16.260;2022-08-25T15:00:12;26.90;99.90
48206;DHT22;33995;48.202;16.260;2022-08-25T15:02:49;26.90;99.90
48206;DHT22;33995;48.202;16.260;2022-08-25T15:05:24;26.90;99.90
48206;DHT22;33995;48.202;16.260;2022-08-25T15:07:59;26.80;99.90
48206;DHT22;33995;48.202;16.260;2022-08-25T15:10:47;26.80;99.90
48206;DHT22;33995;48.202;16.260;2022-08-25T15:13:19;26.90;99.90
48206;DHT22;33995;48.202;16.260;2022-08-25T15:15:49;26.90;99.90
48206;DHT22;33995;48.202;16.260;2022-08-25T15:18:20;26.90;99.90
48206;DHT22;33995;48.202;16.260;2022-08-25T15:20:59;27.00;99.90
48206;DHT22;33995;48.202;16.260;2022-08-25T15:23:33;27.00;99.90
48206;DHT22;33995;48.202;16.260;2022-08-25T15:26:04;27.10;99.90
48206;DHT22;33995;48.202;16.260;2022-08-25T15:28:42;27.10;99.90
48206;DHT22;33995;48.202;16.260;2022-08-25T15:31:15;27.00;99.90
48206;DHT22;33995;48.202;16.260;2022-08-25T15:33:46;27.00;99.90
48206;DHT22;33995;48.202;16.260;2022-08-25T15:36:19;27.00;99.90
48206;DHT22;33995;48.202;16.260;2022-08-25T15:38:51;27.00;99.90
48206;DHT22;33995;48.202;16.260;2022-08-25T15:41:21;26.90;99.90
48206;DHT22;33995;48.202;16.260;2022-08-25T15:43:56;26.90;99.90
48206;DHT22;33995;48.202;16.260;2022-08-25T15:46:28;26.80;99.90
48206;DHT22;33995;48.202;16.260;2022-08-25T15:49:02;26.70;99.90
48206;DHT22;33995;48.202;16.260;2022-08-25T15:51:34;26.70;99.90
48206;DHT22;33995;48.202;16.260;2022-08-25T15:54:06;26.70;99.90
48206;DHT22;33995;48.202;16.260;2022-08-25T15:56:37;26.70;99.90
48206;DHT22;33995;48.202;16.260;2022-08-25T15:59:13;26.60;99.90
48206;DHT22;33995;48.202;16.260;2022-08-25T16:01:49;26.70;99.90
48206;DHT22;33995;48.202;16.260;2022-08-25T16:04:24;26.60;99.90
48206;DHT22;33995;48.202;16.260;2022-08-25T16:06:55;26.60;99.90
48206;DHT22;33995;48.202;16.260;2022-08-25T16:09:38;26.60;99.90
48206;DHT22;33995;48.202;16.260;2022-08-25T16:12:08;26.60;99.90
48206;DHT22;33995;48.202;16.260;2022-08-25T16:14:38;26.60;99.90
48206;DHT22;33995;48.202;16.260;2022-08-25T16:17:10;26.50;99.90
48206;DHT22;33995;48.202;16.260;2022-08-25T16:19:53;26.50;99.90
48206;DHT22;33995;48.202;16.260;2022-08-25T16:22:25;26.60;99.90
48206;DHT22;33995;48.202;16.260;2022-08-25T16:24:55;26.60;99.90
48206;DHT22;33995;48.202;16.260;2022-08-25T16:27:26;26.60;99.90
48206;DHT22;33995;48.202;16.260;2022-08-25T16:30:10;26.60;99.90
48206;DHT22;33995;48.202;16.260;2022-08-25T16:32:47;26.60;99.90
48206;DHT22;33995;48.202;16.260;2022-08-25T16:35:17;26.60;99.90
48206;DHT22;33995;48.202;16.260;2022-08-25T16:37:50;26.60;99.90
48206;DHT22;33995;48.202;16.260;2022-08-25T16:40:21;26.60;99.90
48206;DHT22;33995;48.202;16.260;2022-08-25T16:42:54;26.60;99.90
48206;DHT22;33995;48.202;16.260;2022-08-25T16:45:26;26.60;99.90
48206;DHT22;33995;48.202;16.260;2022-08-25T16:47:59;26.60;99.90
48206;DHT22;33995;48.202;16.260;2022-08-25T16:50:30;26.60;99.90
48206;DHT22;33995;48.202;16.260;2022-08-25T16:53:13;26.60;99.90
48206;DHT22;33995;48.202;16.260;2022-08-25T16:56:03;26.50;99.90
48206;DHT22;33995;48.202;16.260;2022-08-25T16:58:35;26.50;99.90
48206;DHT22;33995;48.202;16.260;2022-08-25T17:01:11;26.40;99.90
48206;DHT22;33995;48.202;16.260;2022-08-25T17:03:43;26.40;99.90
48206;DHT22;33995;48.202;16.260;2022-08-25T17:06:13;26.30;99.90
48206;DHT22;33995;48.202;16.260;2022-08-25T17:08:44;26.30;99.90
48206;DHT22;33995;48.202;16.260;2022-08-25T17:11:20;26.20;99.90
48206;DHT22;33995;48.202;16.260;2022-08-25T17:13:51;26.10;99.90
48206;DHT22;33995;48.202;16.260;2022-08-25T17:16:29;26.00;99.90
48206;DHT22;33995;48.202;16.260;2022-08-25T17:19:05;25.90;99.90
48206;DHT22;33995;48.202;16.260;2022-08-25T17:21:41;25.80;99.90
48206;DHT22;33995;48.202;16.260;2022-08-25T17:24:20;25.60;99.90
48206;DHT22;33995;48.202;16.260;2022-08-25T17:27:00;25.50;99.90
48206;DHT22;33995;48.202;16.260;2022-08-25T17:29:32;25.40;99.90
48206;DHT22;33995;48.202;16.260;2022-08-25T17:32:04;25.30;99.90
48206;DHT22;33995;48.202;16.260;2022-08-25T17:34:38;25.20;99.90
48206;DHT22;33995;48.202;16.260;2022-08-25T17:37:09;25.00;99.90
48206;DHT22;33995;48.202;16.260;2022-08-25T17:39:52;24.90;99.90
48206;DHT22;33995;48.202;16.260;2022-08-25T17:42:29;24.80;99.90